createdAt,value
2023-01-02T00:28:22.665Z,0
2023-01-02T00:29:03.091Z,0
2023-01-02T00:29:43.639Z,0
2023-01-02T00:30:23.978Z,0
2023-01-02T00:31:04.514Z,0
2023-01-02T00:31:45.165Z,0
2023-01-02T00:32:25.510Z,0
2023-01-02T00:33:06.013Z,0
2023-01-02T00:33:46.577Z,0
2023-01-02T00:34:27.055Z,0
2023-01-02T00:35:07.626Z,0
2023-01-02T00:41:52.478Z,0
2023-01-02T00:42:32.949Z,0
2023-01-02T00:43:13.432Z,0
2023-01-02T00:43:54.044Z,0
2023-01-02T00:45:14.964Z,0
2023-01-02T00:45:55.440Z,0
2023-01-02T00:46:35.976Z,0
2023-01-02T00:47:16.442Z,0
2023-01-02T00:47:56.930Z,0
2023-01-02T00:48:37.399Z,0
2023-01-02T00:55:22.324Z,0
2023-01-02T00:56:02.844Z,0
2023-01-02T00:56:43.280Z,0
2023-01-02T00:57:23.813Z,0
2023-01-02T00:58:04.294Z,0
2023-01-02T00:58:44.796Z,0
2023-01-02T00:59:25.332Z,0
2023-01-02T01:00:05.880Z,0
2023-01-02T01:00:46.426Z,0
2023-01-02T01:01:26.990Z,0
2023-01-02T01:08:12.588Z,0
2023-01-02T01:08:53.126Z,0
2023-01-02T01:10:13.984Z,0
2023-01-02T01:10:54.461Z,0
2023-01-02T01:11:34.931Z,0
2023-01-02T01:12:15.423Z,0
2023-01-02T01:12:55.963Z,0
2023-01-02T01:13:36.423Z,0
2023-01-02T01:14:16.944Z,0
2023-01-02T01:14:57.449Z,0
2023-01-02T01:21:42.487Z,0
2023-01-02T01:22:22.953Z,0
2023-01-02T01:23:03.450Z,0
2023-01-02T01:23:43.926Z,0
2023-01-02T01:24:24.401Z,0
2023-01-02T01:25:04.876Z,0
2023-01-02T01:25:45.334Z,0
2023-01-02T01:26:25.821Z,0
2023-01-02T01:27:06.343Z,0
2023-01-02T01:27:46.831Z,0
2023-01-02T01:28:27.352Z,0
2023-01-02T01:35:12.418Z,0
2023-01-02T01:35:52.856Z,0
2023-01-02T01:36:33.338Z,0
2023-01-02T01:37:13.804Z,0
2023-01-02T01:37:54.300Z,0
2023-01-02T01:38:34.801Z,0
2023-01-02T01:39:15.263Z,0
2023-01-02T01:39:56.915Z,0
2023-01-02T01:40:36.272Z,0
2023-01-02T01:41:16.774Z,0
2023-01-02T01:41:57.290Z,0
2023-01-02T01:49:22.665Z,0
2023-01-02T01:50:05.714Z,0
2023-01-02T01:50:43.664Z,0
2023-01-02T01:51:24.171Z,0
2023-01-02T01:52:04.671Z,0
2023-01-02T01:52:45.142Z,0
2023-01-02T01:53:25.646Z,0
2023-01-02T01:54:06.138Z,0
2023-01-02T01:54:46.617Z,0
2023-01-02T01:55:27.104Z,0
2023-01-02T01:56:07.574Z,0
2023-01-02T02:02:52.577Z,0
2023-01-02T02:03:33.002Z,0
2023-01-02T02:04:13.513Z,0
2023-01-02T02:04:53.987Z,0
2023-01-02T02:05:34.597Z,0
2023-01-02T02:06:15.032Z,0
2023-01-02T02:06:55.507Z,0
2023-01-02T02:07:35.998Z,0
2023-01-02T02:08:16.491Z,0
2023-01-02T02:08:56.935Z,0
2023-01-02T02:09:37.381Z,0
2023-01-02T02:17:02.800Z,0
2023-01-02T02:17:43.273Z,0
2023-01-02T02:18:23.785Z,0
2023-01-02T02:19:04.315Z,0
2023-01-02T02:19:44.773Z,0
2023-01-02T02:20:25.284Z,0
2023-01-02T02:21:05.745Z,0
2023-01-02T02:21:46.211Z,0
2023-01-02T02:22:26.700Z,0
2023-01-02T02:23:07.176Z,0
2023-01-02T02:30:32.612Z,0
2023-01-02T02:31:13.063Z,0
2023-01-02T02:31:53.575Z,0
2023-01-02T02:32:34.059Z,0
2023-01-02T02:33:14.527Z,0
2023-01-02T02:33:55.006Z,0
2023-01-02T02:34:35.475Z,0
2023-01-02T02:35:15.979Z,0
2023-01-02T02:35:56.460Z,0
2023-01-02T02:36:36.945Z,0
2023-01-02T02:37:17.460Z,0
2023-01-02T02:44:02.438Z,0
2023-01-02T02:44:42.908Z,0
2023-01-02T02:45:23.407Z,0
2023-01-02T02:46:03.997Z,0
2023-01-02T02:46:44.414Z,0
2023-01-02T02:47:24.901Z,0
2023-01-02T02:48:05.509Z,0
2023-01-02T02:48:46.807Z,0
2023-01-02T02:49:26.335Z,0
2023-01-02T02:50:47.330Z,0
2023-01-02T02:58:12.642Z,0
2023-01-02T02:58:53.130Z,0
2023-01-02T02:59:33.618Z,0
2023-01-02T03:00:14.103Z,0
2023-01-02T03:00:54.610Z,0
2023-01-02T03:01:35.189Z,0
2023-01-02T03:02:15.727Z,0
2023-01-02T03:02:56.213Z,0
2023-01-02T03:03:36.711Z,0
2023-01-02T03:05:49.301Z,0
2023-01-02T03:06:29.877Z,0
2023-01-02T03:07:10.397Z,0
2023-01-02T03:07:50.890Z,0
2023-01-02T03:08:33.311Z,0
2023-01-02T03:09:11.925Z,0
2023-01-02T03:09:52.346Z,0
2023-01-02T03:10:32.845Z,0
2023-01-02T03:11:13.350Z,0
2023-01-02T03:11:53.820Z,0
2023-01-02T03:12:34.339Z,0
2023-01-02T03:19:19.277Z,0
2023-01-02T03:19:59.769Z,0
2023-01-02T03:20:40.263Z,0
2023-01-02T03:21:20.761Z,0
2023-01-02T03:22:01.259Z,0
2023-01-02T03:22:41.724Z,0
2023-01-02T03:23:22.227Z,0
2023-01-02T03:24:02.719Z,0
2023-01-02T03:24:43.221Z,0
2023-01-02T03:25:24.559Z,0
2023-01-02T03:31:29.118Z,0
2023-01-02T03:32:09.579Z,0
2023-01-02T03:32:50.107Z,0
2023-01-02T03:33:30.595Z,0
2023-01-02T03:34:11.139Z,0
2023-01-02T03:34:51.595Z,0
2023-01-02T03:35:32.077Z,0
2023-01-02T03:36:12.550Z,0
2023-01-02T03:36:53.044Z,0
2023-01-02T03:37:33.541Z,0
2023-01-02T03:38:14.093Z,0
2023-01-02T03:44:19.532Z,0
2023-01-02T03:44:59.997Z,0
2023-01-02T03:45:40.495Z,0
2023-01-02T03:46:21.008Z,0
2023-01-02T03:47:01.474Z,0
2023-01-02T03:47:41.918Z,0
2023-01-02T03:48:22.428Z,0
2023-01-02T03:49:02.952Z,0
2023-01-02T03:49:43.393Z,0
2023-01-02T03:50:23.891Z,0
2023-01-02T03:56:29.051Z,0
2023-01-02T03:57:09.569Z,0
2023-01-02T03:57:55.279Z,0
2023-01-02T03:59:11.037Z,0
2023-01-02T03:59:51.538Z,0
2023-01-02T04:00:32.042Z,0
2023-01-02T04:01:12.681Z,0
2023-01-02T04:01:53.217Z,0
2023-01-02T04:02:33.681Z,0
2023-01-02T04:03:14.103Z,0
2023-01-02T04:10:39.406Z,0
2023-01-02T04:11:19.899Z,0
2023-01-02T04:12:00.482Z,0
2023-01-02T04:12:40.956Z,0
2023-01-02T04:13:21.467Z,0
2023-01-02T04:14:01.917Z,0
2023-01-02T04:14:42.423Z,0
2023-01-02T04:15:22.945Z,0
2023-01-02T04:16:03.433Z,0
2023-01-02T04:16:43.912Z,0
2023-01-02T04:23:29.003Z,0
2023-01-02T04:24:09.455Z,0
2023-01-02T04:24:49.931Z,0
2023-01-02T04:25:30.416Z,0
2023-01-02T04:26:10.906Z,0
2023-01-02T04:26:51.445Z,0
2023-01-02T04:27:31.905Z,0
2023-01-02T04:28:12.397Z,0
2023-01-02T04:28:52.878Z,0
2023-01-02T04:29:33.435Z,0
2023-01-02T04:30:13.990Z,0
2023-01-02T04:36:59.062Z,0
2023-01-02T04:37:39.520Z,0
2023-01-02T04:38:20.085Z,0
2023-01-02T04:39:00.544Z,0
2023-01-02T04:39:41.075Z,0
2023-01-02T04:40:21.561Z,0
2023-01-02T04:41:02.122Z,0
2023-01-02T04:41:42.543Z,0
2023-01-02T04:42:23.104Z,0
2023-01-02T04:43:03.532Z,0
2023-01-02T04:43:44.694Z,0
2023-01-02T04:50:29.034Z,0
2023-01-02T04:51:09.536Z,0
2023-01-02T04:51:50.110Z,0
2023-01-02T04:52:33.538Z,0
2023-01-02T04:53:11.074Z,0
2023-01-02T04:53:51.537Z,0
2023-01-02T04:54:32.111Z,0
2023-01-02T04:55:12.594Z,0
2023-01-02T04:55:53.070Z,0
2023-01-02T04:56:33.553Z,0
2023-01-02T05:03:19.240Z,0
2023-01-02T05:03:59.732Z,0
2023-01-02T05:04:40.276Z,0
2023-01-02T05:05:20.829Z,0
2023-01-02T05:06:01.284Z,0
2023-01-02T05:06:41.774Z,0
2023-01-02T05:07:22.393Z,0
2023-01-02T05:08:02.806Z,0
2023-01-02T05:08:43.314Z,0
2023-01-02T05:09:23.795Z,0
2023-01-02T05:10:04.359Z,0
2023-01-02T05:16:49.460Z,0
2023-01-02T05:17:29.966Z,0
2023-01-02T05:18:10.469Z,0
2023-01-02T05:18:50.981Z,0
2023-01-02T05:19:31.518Z,0
2023-01-02T05:20:12.010Z,0
2023-01-02T05:20:52.490Z,0
2023-01-02T05:21:33.019Z,0
2023-01-02T05:22:13.500Z,0
2023-01-02T05:22:54.027Z,0
2023-01-02T05:29:39.239Z,0
2023-01-02T05:30:19.701Z,0
2023-01-02T05:31:00.283Z,0
2023-01-02T05:31:40.708Z,0
2023-01-02T05:32:21.155Z,0
2023-01-02T05:33:01.718Z,0
2023-01-02T05:33:42.200Z,0
2023-01-02T05:34:22.725Z,0
2023-01-02T05:35:03.169Z,0
2023-01-02T05:35:43.715Z,0
2023-01-02T05:36:25.086Z,0
2023-01-02T05:41:49.063Z,0
2023-01-02T05:42:29.588Z,0
2023-01-02T05:43:10.170Z,0
2023-01-02T05:43:50.671Z,0
2023-01-02T05:44:31.146Z,0
2023-01-02T05:45:11.675Z,0
2023-01-02T05:45:52.169Z,0
2023-01-02T05:46:33.446Z,0
2023-01-02T05:47:16.407Z,0
2023-01-02T06:31:20.080Z,0
2023-01-02T06:32:00.378Z,0
2023-01-02T06:32:40.924Z,0
2023-01-02T06:33:21.336Z,0
2023-01-02T06:34:01.875Z,0
2023-01-02T06:34:42.413Z,0
2023-01-02T06:35:22.872Z,0
2023-01-02T06:36:03.396Z,0
2023-01-02T06:36:43.873Z,0
2023-01-02T06:38:04.841Z,0
2023-01-02T06:44:50.118Z,0
2023-01-02T06:45:30.652Z,0
2023-01-02T06:46:11.134Z,0
2023-01-02T06:46:51.618Z,0
2023-01-02T06:47:32.133Z,0
2023-01-02T06:48:12.600Z,0
2023-01-02T06:48:54.079Z,0
2023-01-02T06:49:34.505Z,0
2023-01-02T06:57:00.143Z,0
2023-01-02T06:57:40.703Z,0
2023-01-02T06:58:21.200Z,0
2023-01-02T06:59:01.688Z,0
2023-01-02T06:59:42.242Z,0
2023-01-02T07:00:22.840Z,0
2023-01-02T07:01:03.470Z,0
2023-01-02T07:01:44.106Z,0
2023-01-02T07:02:24.490Z,0
2023-01-02T07:03:04.952Z,0
2023-01-02T07:07:24.438Z,0
2023-01-02T07:08:05.006Z,0
2023-01-02T07:08:45.426Z,0
2023-01-02T07:09:25.864Z,0
2023-01-02T07:10:06.403Z,0
2023-01-02T07:10:52.612Z,0
2023-01-02T07:11:27.392Z,0
2023-01-02T07:12:07.960Z,0
2023-01-02T07:12:48.474Z,0
2023-01-02T07:13:29.059Z,0
2023-01-02T07:14:09.543Z,0
2023-01-02T07:20:14.173Z,0
2023-01-02T07:20:54.680Z,0
2023-01-02T07:21:35.123Z,0
2023-01-02T07:22:15.632Z,0
2023-01-02T07:22:56.131Z,0
2023-01-02T07:23:36.636Z,0
2023-01-02T07:24:17.135Z,0
2023-01-02T07:25:42.530Z,0
2023-01-02T07:26:18.614Z,0
2023-01-02T07:26:59.190Z,0
2023-01-02T07:33:44.567Z,0
2023-01-02T07:34:25.047Z,0
2023-01-02T07:35:05.607Z,0
2023-01-02T07:35:46.228Z,0
2023-01-02T07:36:26.883Z,4
2023-01-02T07:37:07.494Z,4
2023-01-02T07:37:48.113Z,4
2023-01-02T07:38:28.771Z,4
2023-01-02T07:39:09.409Z,4
2023-01-02T07:45:14.301Z,8
2023-01-02T07:45:54.870Z,12
2023-01-02T07:46:35.354Z,12
2023-01-02T07:47:15.917Z,12
2023-01-02T07:47:56.435Z,12
2023-01-02T07:48:37.049Z,20
2023-01-02T07:49:17.529Z,16
2023-01-02T07:49:58.038Z,20
2023-01-02T07:50:38.590Z,20
2023-01-02T07:51:24.714Z,20
2023-01-02T07:58:04.271Z,24
2023-01-02T07:58:44.761Z,28
2023-01-02T07:59:25.272Z,24
2023-01-02T08:00:46.302Z,28
2023-01-02T08:01:26.914Z,28
2023-01-02T08:02:07.497Z,28
2023-01-02T08:02:47.933Z,24
2023-01-02T08:03:28.359Z,20
2023-01-02T08:04:09.021Z,20
2023-01-02T08:04:49.408Z,24
2023-01-02T08:11:34.545Z,16
2023-01-02T08:12:15.075Z,20
2023-01-02T08:12:55.603Z,20
2023-01-02T08:13:36.095Z,24
2023-01-02T08:14:21.646Z,28
2023-01-02T08:14:57.148Z,32
2023-01-02T08:15:37.622Z,32
2023-01-02T08:16:18.216Z,40
2023-01-02T08:16:58.697Z,40
2023-01-02T08:17:39.220Z,52
2023-01-02T08:23:44.250Z,40
2023-01-02T08:24:24.669Z,44
2023-01-02T08:25:05.202Z,48
2023-01-02T08:25:45.728Z,48
2023-01-02T08:26:26.263Z,48
2023-01-02T08:27:06.875Z,52
2023-01-02T08:27:47.370Z,56
2023-01-02T08:28:27.889Z,56
2023-01-02T08:29:08.402Z,60
2023-01-02T08:29:48.897Z,60
2023-01-02T08:36:34.202Z,80
2023-01-02T08:37:14.755Z,76
2023-01-02T08:37:55.272Z,72
2023-01-02T08:38:35.769Z,72
2023-01-02T08:39:16.241Z,68
2023-01-02T08:39:56.765Z,68
2023-01-02T08:41:17.785Z,72
2023-01-02T08:41:58.321Z,76
2023-01-02T08:42:38.833Z,76
2023-01-02T08:50:04.571Z,100
2023-01-02T08:50:45.046Z,108
2023-01-02T08:51:25.614Z,112
2023-01-02T08:52:06.125Z,112
2023-01-02T08:52:46.683Z,116
2023-01-02T08:53:27.194Z,112
2023-01-02T08:54:07.708Z,120
2023-01-02T08:54:48.219Z,128
2023-01-02T08:55:28.714Z,136
2023-01-02T08:56:09.239Z,140
2023-01-02T08:59:28.601Z,160
2023-01-02T09:00:08.707Z,164
2023-01-02T09:00:49.584Z,164
2023-01-02T09:01:30.248Z,168
2023-01-02T09:02:11.497Z,168
2023-01-02T09:02:52.280Z,168
2023-01-02T09:03:32.664Z,172
2023-01-02T09:04:13.677Z,176
2023-01-02T09:09:38.310Z,156
2023-01-02T09:10:18.840Z,152
2023-01-02T09:10:59.388Z,156
2023-01-02T09:11:39.958Z,156
2023-01-02T09:12:20.565Z,156
2023-01-02T09:13:01.157Z,160
2023-01-02T09:13:41.904Z,160
2023-01-02T09:14:22.756Z,164
2023-01-02T09:22:48.396Z,204
2023-01-02T09:23:29.191Z,216
2023-01-02T09:24:10.357Z,220
2023-01-02T09:24:51.654Z,220
2023-01-02T09:25:33.200Z,216
2023-01-02T09:26:58.507Z,200
2023-01-02T09:27:39.751Z,192
2023-01-02T09:28:21.109Z,180
2023-01-02T09:29:02.595Z,176
2023-01-02T09:31:12.196Z,184
2023-01-02T09:31:50.811Z,192
2023-01-02T09:32:32.011Z,204
2023-01-02T09:33:13.213Z,212
2023-01-02T09:35:17.768Z,192
2023-01-02T09:36:00.109Z,224
2023-01-02T09:36:41.212Z,208
2023-01-02T09:37:24.234Z,212
2023-01-02T09:39:32.319Z,268
2023-01-02T09:40:10.377Z,284
2023-01-02T09:40:51.376Z,292
2023-01-02T09:41:32.494Z,248
2023-01-02T09:46:35.740Z,248
2023-01-02T09:47:19.377Z,252
2023-01-02T09:48:00.050Z,228
2023-01-02T09:48:40.481Z,220
2023-01-02T09:49:21.153Z,236
2023-01-02T09:50:02.048Z,252
2023-01-02T09:52:47.513Z,248
2023-01-02T09:53:28.199Z,244
2023-01-02T09:54:08.636Z,236
2023-01-02T09:56:31.972Z,192
2023-01-02T09:58:25.905Z,176
2023-01-02T09:59:06.326Z,180
2023-01-02T09:59:46.964Z,180
2023-01-02T10:00:27.646Z,172
2023-01-02T10:01:08.135Z,180
2023-01-02T10:01:48.750Z,212
2023-01-02T10:02:29.231Z,232
2023-01-02T10:03:09.889Z,216
2023-01-02T10:03:50.408Z,184
2023-01-02T10:09:55.584Z,200
2023-01-02T10:10:36.169Z,208
2023-01-02T10:11:16.732Z,228
2023-01-02T10:12:37.922Z,264
2023-01-02T10:13:18.405Z,268
2023-01-02T10:14:44.139Z,244
2023-01-02T10:15:20.113Z,244
2023-01-02T10:21:25.383Z,160
2023-01-02T10:22:05.935Z,136
2023-01-02T10:22:46.616Z,112
2023-01-02T10:23:27.221Z,104
2023-01-02T10:29:21.883Z,120
2023-01-02T10:30:04.965Z,120
2023-01-02T10:30:45.587Z,132
2023-01-02T10:31:26.072Z,128
2023-01-02T10:34:11.782Z,128
2023-01-02T10:34:52.373Z,148
2023-01-02T10:35:32.949Z,140
2023-01-02T10:36:13.497Z,184
2023-01-02T10:36:53.938Z,200
2023-01-02T10:37:34.510Z,184
2023-01-02T10:38:55.636Z,192
2023-01-02T10:39:36.194Z,172
2023-01-02T10:42:21.114Z,220
2023-01-02T10:43:01.568Z,212
2023-01-02T10:43:42.085Z,236
2023-01-02T10:44:22.618Z,252
2023-01-02T10:45:03.250Z,272
2023-01-02T10:45:45.052Z,280
2023-01-02T10:46:25.592Z,240
2023-01-02T10:47:06.083Z,256
2023-01-02T10:52:31.091Z,352
2023-01-02T10:53:11.576Z,316
2023-01-02T10:53:52.333Z,248
2023-01-02T10:54:32.777Z,216
2023-01-02T10:55:13.275Z,204
2023-01-02T10:55:56.436Z,184
2023-01-02T11:00:41.637Z,380
2023-01-02T11:01:22.181Z,396
2023-01-02T11:02:02.727Z,424
2023-01-02T11:02:43.269Z,424
2023-01-02T11:03:23.748Z,488
2023-01-02T11:06:53.028Z,516
2023-01-02T11:07:34.238Z,504
2023-01-02T11:08:15.784Z,460
2023-01-02T11:08:56.386Z,404
2023-01-02T11:09:37.341Z,432
2023-01-02T11:15:02.524Z,488
2023-01-02T11:15:43.294Z,488
2023-01-02T11:16:23.984Z,472
2023-01-02T11:17:05.022Z,440
2023-01-02T11:17:45.604Z,436
2023-01-02T11:21:12.668Z,396
2023-01-02T11:21:54.541Z,404
2023-01-02T11:22:34.662Z,408
2023-01-02T11:26:15.573Z,376
2023-01-02T11:26:56.251Z,364
2023-01-02T11:27:36.826Z,376
2023-01-02T11:28:17.383Z,376
2023-01-02T11:28:58.005Z,376
2023-01-02T11:29:38.587Z,368
2023-01-02T11:30:20.037Z,368
2023-01-02T11:31:01.532Z,388
2023-01-02T11:31:42.148Z,408
2023-01-02T11:32:22.773Z,448
2023-01-02T11:37:47.293Z,404
2023-01-02T11:38:29.233Z,364
2023-01-02T11:39:08.506Z,304
2023-01-02T11:39:48.921Z,288
2023-01-02T11:40:29.444Z,316
2023-01-02T11:41:09.924Z,296
2023-01-02T11:41:50.565Z,280
2023-01-02T11:42:31.208Z,244
2023-01-02T11:43:11.775Z,204
2023-01-02T11:43:52.317Z,164
2023-01-02T11:46:11.086Z,144
2023-01-02T11:46:51.963Z,128
2023-01-02T11:47:32.837Z,100
2023-01-02T11:48:13.215Z,76
2023-01-02T11:48:54.011Z,68
2023-01-02T11:49:34.381Z,80
2023-01-02T11:50:15.254Z,100
2023-01-02T11:53:01.680Z,260
2023-01-02T11:53:40.735Z,292
2023-01-02T12:32:06.497Z,308
2023-01-02T12:32:44.577Z,320
2023-01-02T12:33:25.945Z,324
2023-01-02T12:34:07.913Z,336
2023-01-02T12:36:12.107Z,380
2023-01-02T12:37:02.069Z,384
2023-01-02T12:37:42.950Z,384
2023-01-02T12:38:27.527Z,396
2023-01-02T12:39:05.949Z,392
2023-01-02T12:42:42.795Z,244
2023-01-02T12:43:24.325Z,224
2023-01-02T12:44:04.778Z,212
2023-01-02T12:44:45.584Z,216
2023-01-02T12:45:26.161Z,208
2023-01-02T12:46:06.775Z,212
2023-01-02T12:46:47.256Z,220
2023-01-02T12:50:12.801Z,212
2023-01-02T12:50:53.456Z,228
2023-01-02T12:51:34.047Z,236
2023-01-02T12:52:15.191Z,236
2023-01-02T12:52:55.883Z,248
2023-01-02T12:53:36.416Z,252
2023-01-02T12:54:19.392Z,240
2023-01-02T12:54:57.495Z,216
2023-01-02T13:02:57.846Z,180
2023-01-02T13:03:41.386Z,184
2023-01-02T13:04:52.787Z,200
2023-01-02T13:06:43.129Z,208
2023-01-02T13:08:55.166Z,200
2023-01-02T13:09:35.809Z,212
2023-01-02T13:10:16.368Z,220
2023-01-02T13:10:57.060Z,224
2023-01-02T13:11:37.494Z,220
2023-01-02T13:12:18.862Z,212
2023-01-02T13:12:59.409Z,200
2023-01-02T13:17:45.109Z,184
2023-01-02T13:18:25.684Z,188
2023-01-02T13:19:06.198Z,192
2023-01-02T13:21:19.120Z,240
2023-01-02T13:21:59.627Z,244
2023-01-02T13:22:40.287Z,228
2023-01-02T13:23:20.878Z,208
2023-01-02T13:24:01.488Z,184
2023-01-02T13:24:42.030Z,160
2023-01-02T13:25:22.598Z,140
2023-01-02T13:26:03.188Z,124
2023-01-02T13:26:43.711Z,116
2023-01-02T13:27:24.341Z,112
2023-01-02T13:28:04.865Z,116
2023-01-02T13:34:10.101Z,144
2023-01-02T13:34:50.636Z,152
2023-01-02T13:35:31.187Z,140
2023-01-02T13:36:15.493Z,124
2023-01-02T13:36:52.284Z,128
2023-01-02T13:37:32.896Z,144
2023-01-02T13:38:13.388Z,140
2023-01-02T13:38:53.863Z,152
2023-01-02T13:39:34.460Z,164
2023-01-02T13:40:15.014Z,176
2023-01-02T13:43:41.087Z,252
2023-01-02T13:44:21.612Z,252
2023-01-02T13:45:02.273Z,220
2023-01-02T13:45:44.336Z,200
2023-01-02T13:47:01.222Z,200
2023-01-02T13:52:29.951Z,212
2023-01-02T13:53:10.563Z,196
2023-01-02T13:53:51.109Z,168
2023-01-02T13:54:31.617Z,188
2023-01-02T13:55:14.456Z,184
2023-01-02T13:55:54.182Z,148
2023-01-02T13:56:34.766Z,136
2023-01-02T14:01:19.835Z,132
2023-01-02T14:02:01.269Z,128
2023-01-02T14:02:41.787Z,136
2023-01-02T14:03:23.173Z,136
2023-01-02T14:04:03.655Z,128
2023-01-02T14:04:44.189Z,116
2023-01-02T14:05:24.724Z,92
2023-01-02T14:10:09.695Z,56
2023-01-02T14:10:49.991Z,56
2023-01-02T14:11:30.505Z,52
2023-01-02T14:12:12.076Z,48
2023-01-02T14:12:53.665Z,48
2023-01-02T14:13:33.256Z,56
2023-01-02T14:14:15.063Z,60
2023-01-02T14:19:40.083Z,52
2023-01-02T14:20:21.087Z,48
2023-01-02T14:21:01.392Z,48
2023-01-02T14:21:41.890Z,40
2023-01-02T14:22:22.456Z,40
2023-01-02T14:23:04.683Z,44
2023-01-02T14:24:16.627Z,44
2023-01-02T14:27:32.183Z,40
2023-01-02T14:28:14.141Z,36
2023-01-02T14:28:57.751Z,32
2023-01-02T14:29:38.329Z,32
2023-01-02T14:30:19.093Z,32
2023-01-02T14:31:03.162Z,36
2023-01-02T14:37:09.304Z,44
2023-01-02T14:37:51.433Z,48
2023-01-02T14:38:32.191Z,52
2023-01-02T14:39:12.662Z,52
2023-01-02T14:39:53.340Z,48
2023-01-02T14:40:33.872Z,44
2023-01-02T14:46:00.315Z,36
2023-01-02T14:46:40.857Z,40
2023-01-02T14:47:21.411Z,36
2023-01-02T14:48:02.034Z,32
2023-01-02T14:48:42.598Z,32
2023-01-02T14:49:26.363Z,32
2023-01-02T14:50:03.565Z,40
2023-01-02T14:50:44.134Z,40
2023-01-02T14:57:27.873Z,28
2023-01-02T14:58:08.465Z,28
2023-01-02T14:58:48.964Z,28
2023-01-02T14:59:29.578Z,24
2023-01-02T15:00:10.124Z,24
2023-01-02T15:00:50.545Z,24
2023-01-02T15:01:42.725Z,20
2023-01-02T15:02:11.603Z,24
2023-01-02T15:02:52.226Z,32
2023-01-02T15:09:37.401Z,32
2023-01-02T15:10:18.159Z,28
2023-01-02T15:10:58.925Z,28
2023-01-02T15:11:39.453Z,24
2023-01-02T15:12:19.878Z,20
2023-01-02T15:13:00.485Z,16
2023-01-02T15:14:04.561Z,16
2023-01-02T15:14:23.937Z,12
2023-01-02T15:15:01.981Z,12
2023-01-02T15:26:32.241Z,8
2023-01-02T15:26:56.498Z,12
2023-01-02T15:27:37.064Z,12
2023-01-02T15:28:17.633Z,8
2023-01-02T15:35:02.829Z,8
2023-01-02T15:35:43.320Z,8
2023-01-02T15:36:23.819Z,8
2023-01-02T15:37:04.334Z,4
2023-01-02T15:37:44.965Z,8
2023-01-02T15:38:25.473Z,8
2023-01-02T15:39:05.952Z,8
2023-01-02T15:39:46.592Z,8
2023-01-02T15:40:27.068Z,4
2023-01-02T15:41:07.687Z,4
2023-01-02T15:47:12.803Z,4
2023-01-02T15:47:53.318Z,4
2023-01-02T15:48:33.787Z,4
2023-01-02T15:49:14.324Z,4
2023-01-02T15:49:54.974Z,4
2023-01-02T15:50:35.461Z,4
2023-01-02T15:51:15.902Z,0
2023-01-02T15:51:56.427Z,0
2023-01-02T15:52:36.933Z,4
2023-01-02T15:53:17.445Z,4
2023-01-02T16:00:43.204Z,4
2023-01-02T16:01:23.852Z,4
2023-01-02T16:02:04.389Z,0
2023-01-02T16:02:45.045Z,0
2023-01-02T16:03:25.198Z,0
2023-01-02T16:04:05.693Z,0
2023-01-02T16:04:46.176Z,0
2023-01-02T16:05:26.733Z,0
2023-01-02T16:06:07.279Z,0
2023-01-02T16:06:47.943Z,0
2023-01-02T16:12:52.764Z,0
2023-01-02T16:13:33.124Z,0
2023-01-02T16:14:13.680Z,0
2023-01-02T16:14:54.167Z,0
2023-01-02T16:15:34.727Z,0
2023-01-02T16:16:16.854Z,0
2023-01-02T16:16:56.033Z,0
2023-01-02T16:17:36.192Z,0
2023-01-02T16:18:16.702Z,0
2023-01-02T16:18:57.216Z,0
2023-01-02T16:19:37.864Z,0
2023-01-02T16:26:23.059Z,0
2023-01-02T16:27:03.535Z,0
2023-01-02T16:27:44.084Z,0
2023-01-02T16:28:34.278Z,0
2023-01-02T16:29:05.273Z,0
2023-01-02T16:29:45.660Z,0
2023-01-02T16:30:26.174Z,0
2023-01-02T16:31:06.714Z,0
2023-01-02T16:31:47.238Z,0
2023-01-02T16:32:28.334Z,0
2023-01-02T16:39:13.103Z,0
2023-01-02T16:39:53.608Z,0
2023-01-02T16:40:59.285Z,0
2023-01-02T16:41:14.693Z,0
2023-01-02T16:43:27.484Z,0
2023-01-02T16:44:08.005Z,0
2023-01-02T16:44:48.482Z,0
2023-01-02T16:45:28.990Z,0
2023-01-02T16:46:09.511Z,0
2023-01-02T16:46:49.971Z,0
2023-01-02T16:47:30.456Z,0
2023-01-02T16:48:11.051Z,0
2023-01-02T16:48:51.477Z,0
2023-01-02T16:49:32.126Z,0
2023-01-02T16:56:17.173Z,0
2023-01-02T16:56:57.632Z,0
2023-01-02T16:58:19.321Z,0
2023-01-02T16:58:59.182Z,0
2023-01-02T16:59:39.663Z,0
2023-01-02T17:00:20.181Z,0
2023-01-02T17:01:00.742Z,0
2023-01-02T17:01:41.321Z,0
2023-01-02T17:02:21.781Z,0
2023-01-02T17:03:02.305Z,0
2023-01-02T17:09:47.148Z,0
2023-01-02T17:10:27.648Z,0
2023-01-02T17:11:08.200Z,0
2023-01-02T17:11:48.684Z,0
2023-01-02T17:12:29.175Z,0
2023-01-02T17:13:09.714Z,0
2023-01-02T17:13:50.265Z,0
2023-01-02T17:14:30.701Z,0
2023-01-02T17:15:11.229Z,0
2023-01-02T17:15:51.700Z,0
2023-01-02T17:23:17.198Z,0
2023-01-02T17:23:57.748Z,0
2023-01-02T17:24:38.604Z,0
2023-01-02T17:26:37.772Z,0
2023-01-02T17:27:18.215Z,0
2023-01-02T17:27:58.740Z,0
2023-01-02T17:28:39.293Z,0
2023-01-02T17:29:19.863Z,0
2023-01-02T17:30:00.379Z,0
2023-01-02T17:30:40.812Z,0
2023-01-02T17:31:25.656Z,0
2023-01-02T17:32:01.861Z,0
2023-01-02T17:32:42.314Z,0
2023-01-02T17:39:27.616Z,0
2023-01-02T17:40:08.100Z,0
2023-01-02T17:40:48.677Z,0
2023-01-02T17:41:29.166Z,0
2023-01-02T17:42:11.481Z,0
2023-01-02T17:42:50.234Z,0
2023-01-02T17:43:30.789Z,0
2023-01-02T17:44:11.320Z,0
2023-01-02T17:44:51.783Z,0
2023-01-02T17:45:32.374Z,0
2023-01-02T17:52:17.611Z,0
2023-01-02T17:52:58.075Z,0
2023-01-02T18:33:59.216Z,0
2023-01-02T18:34:48.799Z,0
2023-01-02T18:35:55.302Z,0
2023-01-02T18:36:00.683Z,0
2023-01-02T18:36:41.131Z,0
2023-01-02T18:37:21.750Z,0
2023-01-02T18:38:02.105Z,0
2023-01-02T18:38:43.383Z,0
2023-01-02T18:39:23.498Z,0
2023-01-02T18:40:04.031Z,0
2023-01-02T18:45:29.388Z,0
2023-01-02T18:46:10.083Z,0
2023-01-02T18:47:02.615Z,0
2023-01-02T18:47:31.825Z,0
2023-01-02T18:48:12.103Z,0
2023-01-02T18:48:54.197Z,0
2023-01-02T18:53:38.976Z,0
2023-01-02T18:54:19.499Z,0
2023-01-02T18:55:00.055Z,0
2023-01-02T18:55:40.777Z,0
2023-01-02T18:56:21.100Z,0
2023-01-02T18:57:01.604Z,0
2023-01-02T18:57:42.131Z,0
2023-01-02T18:58:22.626Z,0
2023-01-02T18:59:03.147Z,0
2023-01-02T18:59:43.691Z,0
2023-01-02T19:00:24.244Z,0
2023-01-02T19:07:09.341Z,0
2023-01-02T19:07:49.879Z,0
2023-01-02T19:08:30.375Z,0
2023-01-02T19:09:10.892Z,0
2023-01-02T19:09:51.380Z,0
2023-01-02T19:10:36.523Z,0
2023-01-02T19:11:12.445Z,0
2023-01-02T19:11:52.984Z,0
2023-01-02T19:12:33.511Z,0
2023-01-02T19:13:14.028Z,0
2023-01-02T19:19:59.105Z,0
2023-01-02T19:20:39.683Z,0
2023-01-02T19:21:20.090Z,0
2023-01-02T19:22:00.638Z,0
2023-01-02T19:22:41.117Z,0
2023-01-02T19:23:21.643Z,0
2023-01-02T19:24:02.088Z,0
2023-01-02T19:24:42.587Z,0
2023-01-02T19:25:23.115Z,0
2023-01-02T19:26:03.639Z,0
2023-01-02T19:26:44.181Z,0
2023-01-02T19:33:29.346Z,0
2023-01-02T19:34:09.854Z,0
2023-01-02T19:34:50.379Z,0
2023-01-02T19:35:30.865Z,0
2023-01-02T19:36:11.398Z,0
2023-01-02T19:36:51.868Z,0
2023-01-02T19:37:32.441Z,0
2023-01-02T19:38:12.951Z,0
2023-01-02T19:38:53.513Z,0
2023-01-02T19:39:34.009Z,0
2023-01-02T19:44:22.574Z,0
2023-01-02T19:45:07.061Z,0
2023-01-02T19:47:48.956Z,0
2023-01-02T19:48:29.443Z,0
2023-01-02T19:49:09.914Z,0
2023-01-02T19:49:50.435Z,0
2023-01-02T19:51:11.436Z,0
2023-01-02T19:51:51.992Z,0
2023-01-02T19:52:32.497Z,0
2023-01-02T19:53:12.947Z,0
2023-01-02T19:53:56.353Z,0
2023-01-02T19:54:34.244Z,0
2023-01-02T20:00:39.020Z,0
2023-01-02T20:01:19.534Z,0
2023-01-02T20:02:00.047Z,0
2023-01-02T20:02:40.645Z,0
2023-01-02T20:03:21.035Z,0
2023-01-02T20:04:01.920Z,0
2023-01-02T20:04:42.085Z,0
2023-01-02T20:05:23.180Z,0
2023-01-02T20:06:03.094Z,0
2023-01-02T20:06:43.549Z,0
2023-01-02T20:07:24.058Z,0
2023-01-02T20:14:09.308Z,0
2023-01-02T20:14:49.768Z,0
2023-01-02T20:15:30.367Z,0
2023-01-02T20:16:10.838Z,0
2023-01-02T20:16:51.341Z,0
2023-01-02T20:17:31.835Z,0
2023-01-02T20:18:12.304Z,0
2023-01-02T20:18:52.849Z,0
2023-01-02T20:19:33.333Z,0
2023-01-02T20:20:13.972Z,0
2023-01-02T20:26:58.939Z,0
2023-01-02T20:27:39.477Z,0
2023-01-02T20:28:19.968Z,0
2023-01-02T20:29:00.475Z,0
2023-01-02T20:29:40.953Z,0
2023-01-02T20:30:24.406Z,0
2023-01-02T20:31:01.974Z,0
2023-01-02T20:31:42.401Z,0
2023-01-02T20:32:22.908Z,0
2023-01-02T20:33:03.362Z,0
2023-01-02T20:33:43.868Z,0
2023-01-02T20:40:28.957Z,0
2023-01-02T20:41:09.425Z,0
2023-01-02T20:41:49.999Z,0
2023-01-02T20:42:30.506Z,0